sensor_id;sensor_type;location;lat;lon;timestamp;P1;durP1;ratioP1;P2;durP2;ratioP2
65755;SDS011;52489;47.502;18.940;2022-09-12T00:00:08;2.55;;;1.30;;
65755;SDS011;52489;47.502;18.940;2022-09-12T00:01:16;2.37;;;0.93;;
65755;SDS011;52489;47.502;18.940;2022-09-12T00:02:21;1.75;;;1.40;;
65755;SDS011;52489;47.502;18.940;2022-09-12T00:03:24;2.95;;;1.27;;
65755;SDS011;52489;47.502;18.940;2022-09-12T00:04:27;1.52;;;1.23;;
65755;SDS011;52489;47.502;18.940;2022-09-12T00:05:30;1.45;;;1.30;;
65755;SDS011;52489;47.502;18.940;2022-09-12T00:06:35;1.12;;;1.10;;
65755;SDS011;52489;47.502;18.940;2022-09-12T00:07:38;1.52;;;1.20;;
65755;SDS011;52489;47.502;18.940;2022-09-12T00:08:41;1.17;;;0.93;;
65755;SDS011;52489;47.502;18.940;2022-09-12T00:09:45;1.87;;;1.30;;
65755;SDS011;52489;47.502;18.940;2022-09-12T00:10:48;3.33;;;1.30;;
65755;SDS011;52489;47.502;18.940;2022-09-12T00:11:51;1.30;;;1.17;;
65755;SDS011;52489;47.502;18.940;2022-09-12T00:12:54;1.10;;;1.10;;
65755;SDS011;52489;47.502;18.940;2022-09-12T00:13:58;4.10;;;1.50;;
65755;SDS011;52489;47.502;18.940;2022-09-12T00:15:02;1.25;;;1.15;;
65755;SDS011;52489;47.502;18.940;2022-09-12T00:16:05;2.47;;;1.40;;
65755;SDS011;52489;47.502;18.940;2022-09-12T00:17:09;1.35;;;1.20;;
65755;SDS011;52489;47.502;18.940;2022-09-12T00:18:13;1.80;;;1.17;;
65755;SDS011;52489;47.502;18.940;2022-09-12T00:19:18;2.37;;;1.17;;
65755;SDS011;52489;47.502;18.940;2022-09-12T00:20:21;1.00;;;1.00;;
65755;SDS011;52489;47.502;18.940;2022-09-12T00:21:24;1.30;;;1.20;;
65755;SDS011;52489;47.502;18.940;2022-09-12T00:22:27;1.25;;;1.15;;
65755;SDS011;52489;47.502;18.940;2022-09-12T00:23:31;1.23;;;1.12;;
65755;SDS011;52489;47.502;18.940;2022-09-12T00:24:38;1.37;;;1.02;;
65755;SDS011;52489;47.502;18.940;2022-09-12T00:25:46;1.37;;;1.12;;
65755;SDS011;52489;47.502;18.940;2022-09-12T00:26:50;2.12;;;1.10;;
65755;SDS011;52489;47.502;18.940;2022-09-12T00:27:53;3.15;;;1.62;;
65755;SDS011;52489;47.502;18.940;2022-09-12T00:28:56;0.98;;;0.90;;
65755;SDS011;52489;47.502;18.940;2022-09-12T00:29:59;1.45;;;1.25;;
65755;SDS011;52489;47.502;18.940;2022-09-12T00:31:03;2.20;;;1.58;;
65755;SDS011;52489;47.502;18.940;2022-09-12T00:32:12;1.45;;;1.15;;
65755;SDS011;52489;47.502;18.940;2022-09-12T00:33:15;1.67;;;1.20;;
65755;SDS011;52489;47.502;18.940;2022-09-12T00:34:19;1.30;;;1.20;;
65755;SDS011;52489;47.502;18.940;2022-09-12T00:35:22;1.58;;;1.33;;
65755;SDS011;52489;47.502;18.940;2022-09-12T00:36:25;3.25;;;1.15;;
65755;SDS011;52489;47.502;18.940;2022-09-12T00:37:30;1.40;;;1.30;;
65755;SDS011;52489;47.502;18.940;2022-09-12T00:38:33;1.92;;;1.27;;
65755;SDS011;52489;47.502;18.940;2022-09-12T00:39:39;1.37;;;1.20;;
65755;SDS011;52489;47.502;18.940;2022-09-12T00:40:42;1.67;;;1.33;;
65755;SDS011;52489;47.502;18.940;2022-09-12T00:41:51;1.60;;;1.50;;
65755;SDS011;52489;47.502;18.940;2022-09-12T00:42:54;2.33;;;1.40;;
65755;SDS011;52489;47.502;18.940;2022-09-12T00:44:01;1.73;;;1.27;;
65755;SDS011;52489;47.502;18.940;2022-09-12T00:45:18;1.25;;;1.15;;
65755;SDS011;52489;47.502;18.940;2022-09-12T00:46:34;1.73;;;1.30;;
65755;SDS011;52489;47.502;18.940;2022-09-12T00:47:39;1.30;;;1.20;;
65755;SDS011;52489;47.502;18.940;2022-09-12T00:48:45;1.73;;;1.40;;
65755;SDS011;52489;47.502;18.940;2022-09-12T00:50:04;1.20;;;1.10;;
65755;SDS011;52489;47.502;18.940;2022-09-12T00:51:10;1.52;;;1.33;;
65755;SDS011;52489;47.502;18.940;2022-09-12T00:52:23;1.87;;;1.40;;
65755;SDS011;52489;47.502;18.940;2022-09-12T00:53:31;1.55;;;1.25;;
65755;SDS011;52489;47.502;18.940;2022-09-12T00:54:37;1.40;;;1.27;;
65755;SDS011;52489;47.502;18.940;2022-09-12T00:55:46;1.20;;;1.10;;
65755;SDS011;52489;47.502;18.940;2022-09-12T00:56:56;2.08;;;1.50;;
65755;SDS011;52489;47.502;18.940;2022-09-12T00:58:05;2.37;;;1.40;;
65755;SDS011;52489;47.502;18.940;2022-09-12T00:59:23;1.02;;;1.02;;
65755;SDS011;52489;47.502;18.940;2022-09-12T01:00:30;1.80;;;1.40;;
65755;SDS011;52489;47.502;18.940;2022-09-12T01:01:33;1.50;;;1.33;;
65755;SDS011;52489;47.502;18.940;2022-09-12T01:02:37;1.20;;;1.20;;
65755;SDS011;52489;47.502;18.940;2022-09-12T01:03:41;1.75;;;1.20;;
65755;SDS011;52489;47.502;18.940;2022-09-12T01:04:44;1.45;;;1.20;;
65755;SDS011;52489;47.502;18.940;2022-09-12T01:05:55;2.12;;;1.58;;
65755;SDS011;52489;47.502;18.940;2022-09-12T01:07:05;3.03;;;1.33;;
65755;SDS011;52489;47.502;18.940;2022-09-12T01:08:10;1.25;;;1.15;;
65755;SDS011;52489;47.502;18.940;2022-09-12T01:09:15;1.35;;;1.00;;
65755;SDS011;52489;47.502;18.940;2022-09-12T01:10:21;1.37;;;1.27;;
65755;SDS011;52489;47.502;18.940;2022-09-12T01:11:25;1.10;;;1.00;;
65755;SDS011;52489;47.502;18.940;2022-09-12T01:12:29;1.17;;;1.12;;
65755;SDS011;52489;47.502;18.940;2022-09-12T01:13:33;2.03;;;1.23;;
65755;SDS011;52489;47.502;18.940;2022-09-12T01:14:37;1.98;;;1.10;;
65755;SDS011;52489;47.502;18.940;2022-09-12T01:15:40;1.65;;;1.20;;
65755;SDS011;52489;47.502;18.940;2022-09-12T01:16:44;0.98;;;0.98;;
65755;SDS011;52489;47.502;18.940;2022-09-12T01:21:52;0.95;;;0.95;;
65755;SDS011;52489;47.502;18.940;2022-09-12T01:31:48;0.82;;;0.82;;
65755;SDS011;52489;47.502;18.940;2022-09-12T01:34:25;1.62;;;1.10;;
65755;SDS011;52489;47.502;18.940;2022-09-12T01:35:31;1.08;;;1.00;;
65755;SDS011;52489;47.502;18.940;2022-09-12T01:36:53;1.20;;;1.10;;
65755;SDS011;52489;47.502;18.940;2022-09-12T01:38:23;1.23;;;1.12;;
65755;SDS011;52489;47.502;18.940;2022-09-12T01:39:44;2.25;;;1.37;;
65755;SDS011;52489;47.502;18.940;2022-09-12T01:42:21;2.35;;;1.77;;
65755;SDS011;52489;47.502;18.940;2022-09-12T01:43:35;1.45;;;1.35;;
65755;SDS011;52489;47.502;18.940;2022-09-12T01:44:48;1.40;;;1.17;;
65755;SDS011;52489;47.502;18.940;2022-09-12T01:46:20;1.02;;;1.00;;
65755;SDS011;52489;47.502;18.940;2022-09-12T01:47:41;0.85;;;0.85;;
65755;SDS011;52489;47.502;18.940;2022-09-12T01:48:51;1.42;;;1.02;;
65755;SDS011;52489;47.502;18.940;2022-09-12T01:50:12;1.17;;;1.08;;
65755;SDS011;52489;47.502;18.940;2022-09-12T01:51:55;1.33;;;0.90;;
65755;SDS011;52489;47.502;18.940;2022-09-12T01:53:08;2.67;;;1.50;;
65755;SDS011;52489;47.502;18.940;2022-09-12T01:55:00;1.20;;;1.10;;
65755;SDS011;52489;47.502;18.940;2022-09-12T01:56:40;1.17;;;1.10;;
65755;SDS011;52489;47.502;18.940;2022-09-12T01:57:28;1.05;;;1.00;;
65755;SDS011;52489;47.502;18.940;2022-09-12T01:58:39;1.23;;;1.12;;
65755;SDS011;52489;47.502;18.940;2022-09-12T01:59:50;1.42;;;1.33;;
65755;SDS011;52489;47.502;18.940;2022-09-12T02:01:01;1.83;;;1.30;;
65755;SDS011;52489;47.502;18.940;2022-09-12T02:02:14;1.42;;;1.12;;
65755;SDS011;52489;47.502;18.940;2022-09-12T02:03:24;2.00;;;1.50;;
65755;SDS011;52489;47.502;18.940;2022-09-12T02:04:42;1.65;;;1.30;;
65755;SDS011;52489;47.502;18.940;2022-09-12T02:05:59;1.35;;;1.23;;
65755;SDS011;52489;47.502;18.940;2022-09-12T02:08:22;1.60;;;1.20;;
65755;SDS011;52489;47.502;18.940;2022-09-12T02:09:34;1.37;;;1.25;;
65755;SDS011;52489;47.502;18.940;2022-09-12T02:10:45;1.85;;;1.60;;
65755;SDS011;52489;47.502;18.940;2022-09-12T02:11:55;1.35;;;1.23;;
65755;SDS011;52489;47.502;18.940;2022-09-12T02:13:12;2.50;;;1.48;;
65755;SDS011;52489;47.502;18.940;2022-09-12T02:14:24;2.75;;;1.50;;
65755;SDS011;52489;47.502;18.940;2022-09-12T02:15:35;2.45;;;1.60;;
65755;SDS011;52489;47.502;18.940;2022-09-12T02:16:44;3.60;;;1.60;;
65755;SDS011;52489;47.502;18.940;2022-09-12T02:17:51;1.17;;;1.08;;
65755;SDS011;52489;47.502;18.940;2022-09-12T02:19:00;2.22;;;1.60;;
65755;SDS011;52489;47.502;18.940;2022-09-12T02:20:14;1.37;;;1.27;;
65755;SDS011;52489;47.502;18.940;2022-09-12T02:22:05;1.52;;;1.40;;
65755;SDS011;52489;47.502;18.940;2022-09-12T02:23:13;1.65;;;1.55;;
65755;SDS011;52489;47.502;18.940;2022-09-12T02:24:27;1.50;;;1.40;;
65755;SDS011;52489;47.502;18.940;2022-09-12T02:25:37;2.72;;;1.80;;
65755;SDS011;52489;47.502;18.940;2022-09-12T02:26:54;2.17;;;1.50;;
65755;SDS011;52489;47.502;18.940;2022-09-12T02:28:03;1.20;;;1.10;;
65755;SDS011;52489;47.502;18.940;2022-09-12T02:29:12;1.58;;;1.35;;
65755;SDS011;52489;47.502;18.940;2022-09-12T02:30:15;2.80;;;1.42;;
65755;SDS011;52489;47.502;18.940;2022-09-12T02:32:33;4.85;;;1.65;;
65755;SDS011;52489;47.502;18.940;2022-09-12T02:33:47;5.43;;;1.70;;
65755;SDS011;52489;47.502;18.940;2022-09-12T02:35:21;1.52;;;1.42;;
65755;SDS011;52489;47.502;18.940;2022-09-12T02:36:45;2.80;;;1.50;;
65755;SDS011;52489;47.502;18.940;2022-09-12T02:38:03;1.05;;;1.05;;
65755;SDS011;52489;47.502;18.940;2022-09-12T02:39:10;1.92;;;1.50;;
65755;SDS011;52489;47.502;18.940;2022-09-12T02:40:13;5.15;;;1.80;;
65755;SDS011;52489;47.502;18.940;2022-09-12T02:41:17;1.70;;;1.55;;
65755;SDS011;52489;47.502;18.940;2022-09-12T02:42:23;1.87;;;1.55;;
65755;SDS011;52489;47.502;18.940;2022-09-12T02:43:26;3.25;;;2.28;;
65755;SDS011;52489;47.502;18.940;2022-09-12T02:44:29;2.97;;;1.70;;
65755;SDS011;52489;47.502;18.940;2022-09-12T02:45:35;2.33;;;1.70;;
65755;SDS011;52489;47.502;18.940;2022-09-12T02:46:40;2.15;;;1.50;;
65755;SDS011;52489;47.502;18.940;2022-09-12T02:48:01;2.17;;;1.52;;
65755;SDS011;52489;47.502;18.940;2022-09-12T02:49:17;1.30;;;1.20;;
65755;SDS011;52489;47.502;18.940;2022-09-12T02:50:20;1.70;;;1.60;;
65755;SDS011;52489;47.502;18.940;2022-09-12T02:51:23;1.62;;;1.50;;
65755;SDS011;52489;47.502;18.940;2022-09-12T02:52:28;5.55;;;2.22;;
65755;SDS011;52489;47.502;18.940;2022-09-12T02:53:31;2.22;;;1.80;;
65755;SDS011;52489;47.502;18.940;2022-09-12T02:54:35;3.58;;;2.00;;
65755;SDS011;52489;47.502;18.940;2022-09-12T02:55:39;3.75;;;1.92;;
65755;SDS011;52489;47.502;18.940;2022-09-12T02:56:44;2.60;;;1.60;;
65755;SDS011;52489;47.502;18.940;2022-09-12T02:57:47;2.17;;;1.50;;
65755;SDS011;52489;47.502;18.940;2022-09-12T02:58:50;2.42;;;1.83;;
65755;SDS011;52489;47.502;18.940;2022-09-12T02:59:54;2.53;;;1.80;;
65755;SDS011;52489;47.502;18.940;2022-09-12T03:03:43;2.35;;;1.70;;
65755;SDS011;52489;47.502;18.940;2022-09-12T03:05:00;1.23;;;1.15;;
65755;SDS011;52489;47.502;18.940;2022-09-12T03:06:18;1.45;;;1.35;;
65755;SDS011;52489;47.502;18.940;2022-09-12T03:10:04;4.18;;;1.77;;
65755;SDS011;52489;47.502;18.940;2022-09-12T03:17:02;1.62;;;1.42;;
65755;SDS011;52489;47.502;18.940;2022-09-12T03:21:28;3.42;;;1.60;;
65755;SDS011;52489;47.502;18.940;2022-09-12T03:22:48;2.05;;;1.40;;
65755;SDS011;52489;47.502;18.940;2022-09-12T03:25:48;1.60;;;1.40;;
65755;SDS011;52489;47.502;18.940;2022-09-12T03:28:22;2.30;;;1.45;;
65755;SDS011;52489;47.502;18.940;2022-09-12T03:29:26;3.55;;;1.85;;
65755;SDS011;52489;47.502;18.940;2022-09-12T03:30:30;1.45;;;1.33;;
65755;SDS011;52489;47.502;18.940;2022-09-12T03:31:49;2.20;;;1.77;;
65755;SDS011;52489;47.502;18.940;2022-09-12T03:32:55;3.72;;;1.83;;
65755;SDS011;52489;47.502;18.940;2022-09-12T03:34:01;2.90;;;1.90;;
65755;SDS011;52489;47.502;18.940;2022-09-12T03:35:04;5.68;;;1.80;;
65755;SDS011;52489;47.502;18.940;2022-09-12T03:36:29;4.45;;;1.60;;
65755;SDS011;52489;47.502;18.940;2022-09-12T03:37:31;2.78;;;1.50;;
65755;SDS011;52489;47.502;18.940;2022-09-12T03:38:34;2.03;;;1.42;;
65755;SDS011;52489;47.502;18.940;2022-09-12T03:39:37;3.45;;;1.90;;
65755;SDS011;52489;47.502;18.940;2022-09-12T03:40:42;2.25;;;1.65;;
65755;SDS011;52489;47.502;18.940;2022-09-12T03:41:45;1.98;;;1.45;;
65755;SDS011;52489;47.502;18.940;2022-09-12T03:42:50;6.10;;;1.58;;
65755;SDS011;52489;47.502;18.940;2022-09-12T03:43:53;2.00;;;1.75;;
65755;SDS011;52489;47.502;18.940;2022-09-12T03:44:58;2.80;;;1.70;;
65755;SDS011;52489;47.502;18.940;2022-09-12T03:46:01;1.85;;;1.67;;
65755;SDS011;52489;47.502;18.940;2022-09-12T03:47:04;2.05;;;1.58;;
65755;SDS011;52489;47.502;18.940;2022-09-12T03:48:12;2.35;;;1.48;;
65755;SDS011;52489;47.502;18.940;2022-09-12T03:49:15;2.15;;;1.55;;
65755;SDS011;52489;47.502;18.940;2022-09-12T03:50:19;1.73;;;1.40;;
65755;SDS011;52489;47.502;18.940;2022-09-12T03:51:22;4.60;;;1.83;;
65755;SDS011;52489;47.502;18.940;2022-09-12T03:52:25;2.70;;;1.85;;
65755;SDS011;52489;47.502;18.940;2022-09-12T03:53:27;1.75;;;1.45;;
65755;SDS011;52489;47.502;18.940;2022-09-12T03:54:30;2.08;;;1.70;;
65755;SDS011;52489;47.502;18.940;2022-09-12T03:55:33;2.20;;;1.58;;
65755;SDS011;52489;47.502;18.940;2022-09-12T03:56:37;1.75;;;1.52;;
65755;SDS011;52489;47.502;18.940;2022-09-12T03:57:41;5.43;;;1.70;;
65755;SDS011;52489;47.502;18.940;2022-09-12T03:58:45;3.20;;;1.90;;
65755;SDS011;52489;47.502;18.940;2022-09-12T03:59:48;2.75;;;2.00;;
65755;SDS011;52489;47.502;18.940;2022-09-12T04:00:52;1.92;;;1.70;;
65755;SDS011;52489;47.502;18.940;2022-09-12T04:01:55;2.12;;;1.67;;
65755;SDS011;52489;47.502;18.940;2022-09-12T04:02:57;2.03;;;1.55;;
65755;SDS011;52489;47.502;18.940;2022-09-12T04:04:00;2.17;;;1.67;;
65755;SDS011;52489;47.502;18.940;2022-09-12T04:05:04;1.80;;;1.60;;
65755;SDS011;52489;47.502;18.940;2022-09-12T04:06:07;1.50;;;1.37;;
65755;SDS011;52489;47.502;18.940;2022-09-12T04:07:11;3.80;;;2.00;;
65755;SDS011;52489;47.502;18.940;2022-09-12T04:08:14;2.03;;;1.62;;
65755;SDS011;52489;47.502;18.940;2022-09-12T04:09:17;4.90;;;1.42;;
65755;SDS011;52489;47.502;18.940;2022-09-12T04:10:20;2.42;;;1.60;;
65755;SDS011;52489;47.502;18.940;2022-09-12T04:11:23;2.67;;;1.60;;
65755;SDS011;52489;47.502;18.940;2022-09-12T04:12:28;1.95;;;1.40;;
65755;SDS011;52489;47.502;18.940;2022-09-12T04:13:31;4.55;;;1.80;;
65755;SDS011;52489;47.502;18.940;2022-09-12T04:14:34;2.22;;;1.58;;
65755;SDS011;52489;47.502;18.940;2022-09-12T04:15:37;1.50;;;1.35;;
65755;SDS011;52489;47.502;18.940;2022-09-12T04:16:40;2.55;;;1.67;;
65755;SDS011;52489;47.502;18.940;2022-09-12T04:17:43;1.80;;;1.65;;
65755;SDS011;52489;47.502;18.940;2022-09-12T04:18:46;2.08;;;1.50;;
65755;SDS011;52489;47.502;18.940;2022-09-12T04:19:49;1.58;;;1.48;;
65755;SDS011;52489;47.502;18.940;2022-09-12T04:20:52;2.65;;;1.45;;
65755;SDS011;52489;47.502;18.940;2022-09-12T04:21:55;1.75;;;1.55;;
65755;SDS011;52489;47.502;18.940;2022-09-12T04:22:58;1.95;;;1.17;;
65755;SDS011;52489;47.502;18.940;2022-09-12T04:24:06;1.75;;;1.60;;
65755;SDS011;52489;47.502;18.940;2022-09-12T04:25:09;2.37;;;1.80;;
65755;SDS011;52489;47.502;18.940;2022-09-12T04:26:13;2.62;;;1.98;;
65755;SDS011;52489;47.502;18.940;2022-09-12T04:27:20;3.78;;;1.80;;
65755;SDS011;52489;47.502;18.940;2022-09-12T04:28:23;3.22;;;1.87;;
65755;SDS011;52489;47.502;18.940;2022-09-12T04:29:27;1.95;;;1.67;;
65755;SDS011;52489;47.502;18.940;2022-09-12T04:30:32;1.85;;;1.50;;
65755;SDS011;52489;47.502;18.940;2022-09-12T04:31:35;5.57;;;1.77;;
65755;SDS011;52489;47.502;18.940;2022-09-12T04:32:38;2.58;;;1.80;;
65755;SDS011;52489;47.502;18.940;2022-09-12T04:33:45;1.83;;;1.48;;
65755;SDS011;52489;47.502;18.940;2022-09-12T04:34:48;3.67;;;1.77;;
65755;SDS011;52489;47.502;18.940;2022-09-12T04:35:54;2.12;;;1.70;;
65755;SDS011;52489;47.502;18.940;2022-09-12T04:36:57;1.77;;;1.23;;
65755;SDS011;52489;47.502;18.940;2022-09-12T04:38:00;3.80;;;2.10;;
65755;SDS011;52489;47.502;18.940;2022-09-12T04:39:03;1.70;;;1.60;;
65755;SDS011;52489;47.502;18.940;2022-09-12T04:40:07;3.15;;;2.33;;
65755;SDS011;52489;47.502;18.940;2022-09-12T04:41:14;3.55;;;1.70;;
65755;SDS011;52489;47.502;18.940;2022-09-12T04:42:19;2.45;;;1.65;;
65755;SDS011;52489;47.502;18.940;2022-09-12T04:43:22;2.62;;;1.65;;
65755;SDS011;52489;47.502;18.940;2022-09-12T04:44:25;2.35;;;1.62;;
65755;SDS011;52489;47.502;18.940;2022-09-12T04:45:28;2.22;;;1.98;;
65755;SDS011;52489;47.502;18.940;2022-09-12T04:46:33;3.00;;;1.62;;
65755;SDS011;52489;47.502;18.940;2022-09-12T04:47:38;2.58;;;1.60;;
65755;SDS011;52489;47.502;18.940;2022-09-12T04:48:41;3.20;;;1.77;;
65755;SDS011;52489;47.502;18.940;2022-09-12T04:49:45;3.75;;;1.90;;
65755;SDS011;52489;47.502;18.940;2022-09-12T04:50:49;1.25;;;1.12;;
65755;SDS011;52489;47.502;18.940;2022-09-12T04:51:52;3.72;;;1.48;;
65755;SDS011;52489;47.502;18.940;2022-09-12T04:52:56;2.35;;;1.60;;
65755;SDS011;52489;47.502;18.940;2022-09-12T04:54:00;4.22;;;2.65;;
65755;SDS011;52489;47.502;18.940;2022-09-12T04:55:05;2.85;;;1.67;;
65755;SDS011;52489;47.502;18.940;2022-09-12T04:56:10;3.70;;;1.87;;
65755;SDS011;52489;47.502;18.940;2022-09-12T04:57:14;2.87;;;1.67;;
65755;SDS011;52489;47.502;18.940;2022-09-12T04:58:17;1.95;;;1.60;;
65755;SDS011;52489;47.502;18.940;2022-09-12T04:59:21;3.60;;;2.33;;
65755;SDS011;52489;47.502;18.940;2022-09-12T05:00:24;2.37;;;1.42;;
65755;SDS011;52489;47.502;18.940;2022-09-12T05:01:28;3.33;;;1.80;;
65755;SDS011;52489;47.502;18.940;2022-09-12T05:02:34;2.45;;;1.42;;
65755;SDS011;52489;47.502;18.940;2022-09-12T05:03:37;3.55;;;1.45;;
65755;SDS011;52489;47.502;18.940;2022-09-12T05:04:41;1.73;;;1.55;;
65755;SDS011;52489;47.502;18.940;2022-09-12T05:05:44;1.65;;;1.30;;
65755;SDS011;52489;47.502;18.940;2022-09-12T05:06:46;2.25;;;1.65;;
65755;SDS011;52489;47.502;18.940;2022-09-12T05:07:49;1.55;;;1.40;;
65755;SDS011;52489;47.502;18.940;2022-09-12T05:08:53;1.60;;;1.50;;
65755;SDS011;52489;47.502;18.940;2022-09-12T05:09:57;1.48;;;1.37;;
65755;SDS011;52489;47.502;18.940;2022-09-12T05:11:07;1.60;;;1.35;;
65755;SDS011;52489;47.502;18.940;2022-09-12T05:12:14;3.72;;;1.50;;
65755;SDS011;52489;47.502;18.940;2022-09-12T05:13:17;1.70;;;1.48;;
65755;SDS011;52489;47.502;18.940;2022-09-12T05:14:20;1.40;;;1.30;;
65755;SDS011;52489;47.502;18.940;2022-09-12T05:15:23;1.67;;;1.30;;
65755;SDS011;52489;47.502;18.940;2022-09-12T05:16:26;1.98;;;1.60;;
65755;SDS011;52489;47.502;18.940;2022-09-12T05:17:30;2.17;;;1.45;;
65755;SDS011;52489;47.502;18.940;2022-09-12T05:18:34;5.93;;;2.25;;
65755;SDS011;52489;47.502;18.940;2022-09-12T05:19:38;1.83;;;1.35;;
65755;SDS011;52489;47.502;18.940;2022-09-12T05:20:40;1.95;;;1.50;;
65755;SDS011;52489;47.502;18.940;2022-09-12T05:21:43;2.50;;;1.60;;
65755;SDS011;52489;47.502;18.940;2022-09-12T05:22:46;1.33;;;1.15;;
65755;SDS011;52489;47.502;18.940;2022-09-12T05:23:53;2.15;;;1.75;;
65755;SDS011;52489;47.502;18.940;2022-09-12T05:24:57;3.42;;;1.75;;
65755;SDS011;52489;47.502;18.940;2022-09-12T05:26:00;2.12;;;1.50;;
65755;SDS011;52489;47.502;18.940;2022-09-12T05:27:04;2.20;;;1.98;;
65755;SDS011;52489;47.502;18.940;2022-09-12T05:28:07;2.50;;;1.77;;
65755;SDS011;52489;47.502;18.940;2022-09-12T05:29:10;7.53;;;1.48;;
65755;SDS011;52489;47.502;18.940;2022-09-12T05:30:14;1.48;;;1.30;;
65755;SDS011;52489;47.502;18.940;2022-09-12T05:31:21;2.25;;;1.70;;
65755;SDS011;52489;47.502;18.940;2022-09-12T05:32:29;2.37;;;1.17;;
65755;SDS011;52489;47.502;18.940;2022-09-12T05:33:34;2.45;;;1.60;;
65755;SDS011;52489;47.502;18.940;2022-09-12T05:34:39;1.87;;;1.70;;
65755;SDS011;52489;47.502;18.940;2022-09-12T05:35:46;2.12;;;1.67;;
65755;SDS011;52489;47.502;18.940;2022-09-12T05:36:53;2.78;;;1.65;;
65755;SDS011;52489;47.502;18.940;2022-09-12T05:37:56;2.12;;;1.67;;
65755;SDS011;52489;47.502;18.940;2022-09-12T05:38:59;2.05;;;1.50;;
65755;SDS011;52489;47.502;18.940;2022-09-12T05:40:02;9.43;;;2.25;;
65755;SDS011;52489;47.502;18.940;2022-09-12T05:41:09;3.83;;;1.87;;
65755;SDS011;52489;47.502;18.940;2022-09-12T05:42:19;1.73;;;1.50;;
65755;SDS011;52489;47.502;18.940;2022-09-12T05:43:22;2.65;;;1.70;;
65755;SDS011;52489;47.502;18.940;2022-09-12T05:44:25;1.58;;;1.45;;
65755;SDS011;52489;47.502;18.940;2022-09-12T05:45:28;3.17;;;2.08;;
65755;SDS011;52489;47.502;18.940;2022-09-12T05:46:35;1.80;;;1.42;;
65755;SDS011;52489;47.502;18.940;2022-09-12T05:47:40;3.47;;;1.83;;
65755;SDS011;52489;47.502;18.940;2022-09-12T05:48:46;1.92;;;1.60;;
65755;SDS011;52489;47.502;18.940;2022-09-12T05:49:56;3.42;;;2.08;;
65755;SDS011;52489;47.502;18.940;2022-09-12T05:51:04;3.28;;;2.00;;
65755;SDS011;52489;47.502;18.940;2022-09-12T05:52:10;3.03;;;2.03;;
65755;SDS011;52489;47.502;18.940;2022-09-12T05:53:13;2.33;;;1.50;;
65755;SDS011;52489;47.502;18.940;2022-09-12T05:54:17;2.45;;;1.65;;
65755;SDS011;52489;47.502;18.940;2022-09-12T05:55:21;3.00;;;1.70;;
65755;SDS011;52489;47.502;18.940;2022-09-12T05:56:26;2.87;;;1.80;;
65755;SDS011;52489;47.502;18.940;2022-09-12T05:57:30;2.80;;;1.70;;
65755;SDS011;52489;47.502;18.940;2022-09-12T05:58:35;2.30;;;1.73;;
65755;SDS011;52489;47.502;18.940;2022-09-12T05:59:39;2.45;;;1.80;;
65755;SDS011;52489;47.502;18.940;2022-09-12T06:00:42;4.18;;;1.60;;
65755;SDS011;52489;47.502;18.940;2022-09-12T06:01:45;2.60;;;1.58;;
65755;SDS011;52489;47.502;18.940;2022-09-12T06:02:50;3.22;;;2.25;;
65755;SDS011;52489;47.502;18.940;2022-09-12T06:03:55;4.30;;;2.50;;
65755;SDS011;52489;47.502;18.940;2022-09-12T06:05:02;3.28;;;1.95;;
65755;SDS011;52489;47.502;18.940;2022-09-12T06:06:09;3.95;;;1.70;;
65755;SDS011;52489;47.502;18.940;2022-09-12T06:07:16;6.07;;;2.45;;
65755;SDS011;52489;47.502;18.940;2022-09-12T06:08:19;2.83;;;1.62;;
65755;SDS011;52489;47.502;18.940;2022-09-12T06:09:22;4.60;;;2.03;;
65755;SDS011;52489;47.502;18.940;2022-09-12T06:10:27;2.85;;;1.37;;
65755;SDS011;52489;47.502;18.940;2022-09-12T06:11:31;2.60;;;1.58;;
65755;SDS011;52489;47.502;18.940;2022-09-12T06:12:36;2.28;;;1.70;;
65755;SDS011;52489;47.502;18.940;2022-09-12T06:13:42;2.05;;;1.58;;
65755;SDS011;52489;47.502;18.940;2022-09-12T06:14:45;4.00;;;2.45;;
65755;SDS011;52489;47.502;18.940;2022-09-12T06:15:48;4.05;;;1.62;;
65755;SDS011;52489;47.502;18.940;2022-09-12T06:16:51;3.25;;;2.12;;
65755;SDS011;52489;47.502;18.940;2022-09-12T06:17:54;3.90;;;1.98;;
65755;SDS011;52489;47.502;18.940;2022-09-12T06:18:58;3.03;;;1.80;;
65755;SDS011;52489;47.502;18.940;2022-09-12T06:20:02;4.75;;;1.75;;
65755;SDS011;52489;47.502;18.940;2022-09-12T06:21:06;3.25;;;2.03;;
65755;SDS011;52489;47.502;18.940;2022-09-12T06:22:11;4.07;;;2.15;;
65755;SDS011;52489;47.502;18.940;2022-09-12T06:23:15;3.10;;;2.00;;
65755;SDS011;52489;47.502;18.940;2022-09-12T06:24:19;3.40;;;1.87;;
65755;SDS011;52489;47.502;18.940;2022-09-12T06:25:22;3.40;;;2.10;;
65755;SDS011;52489;47.502;18.940;2022-09-12T06:26:26;3.53;;;2.30;;
65755;SDS011;52489;47.502;18.940;2022-09-12T06:27:32;2.72;;;1.73;;
65755;SDS011;52489;47.502;18.940;2022-09-12T06:28:35;2.22;;;1.65;;
65755;SDS011;52489;47.502;18.940;2022-09-12T06:29:40;3.37;;;1.92;;
65755;SDS011;52489;47.502;18.940;2022-09-12T06:30:43;2.87;;;1.55;;
65755;SDS011;52489;47.502;18.940;2022-09-12T06:31:46;3.55;;;1.80;;
65755;SDS011;52489;47.502;18.940;2022-09-12T06:32:49;3.03;;;1.80;;
65755;SDS011;52489;47.502;18.940;2022-09-12T06:33:53;3.15;;;2.10;;
65755;SDS011;52489;47.502;18.940;2022-09-12T06:34:57;2.70;;;2.00;;
65755;SDS011;52489;47.502;18.940;2022-09-12T06:36:19;3.15;;;2.17;;
65755;SDS011;52489;47.502;18.940;2022-09-12T06:37:24;3.83;;;1.95;;
65755;SDS011;52489;47.502;18.940;2022-09-12T06:38:26;3.40;;;1.80;;
65755;SDS011;52489;47.502;18.940;2022-09-12T06:39:29;3.42;;;1.90;;
65755;SDS011;52489;47.502;18.940;2022-09-12T06:40:34;3.90;;;1.98;;
65755;SDS011;52489;47.502;18.940;2022-09-12T06:41:44;3.35;;;2.10;;
65755;SDS011;52489;47.502;18.940;2022-09-12T06:42:49;3.15;;;2.00;;
65755;SDS011;52489;47.502;18.940;2022-09-12T06:43:52;2.72;;;1.73;;
65755;SDS011;52489;47.502;18.940;2022-09-12T06:44:55;3.12;;;2.00;;
65755;SDS011;52489;47.502;18.940;2022-09-12T06:45:58;3.50;;;2.17;;
65755;SDS011;52489;47.502;18.940;2022-09-12T06:47:02;3.33;;;2.17;;
65755;SDS011;52489;47.502;18.940;2022-09-12T06:48:05;3.83;;;2.15;;
65755;SDS011;52489;47.502;18.940;2022-09-12T06:49:08;5.37;;;1.87;;
65755;SDS011;52489;47.502;18.940;2022-09-12T06:50:11;2.97;;;1.95;;
65755;SDS011;52489;47.502;18.940;2022-09-12T06:51:15;5.32;;;2.58;;
65755;SDS011;52489;47.502;18.940;2022-09-12T06:52:20;12.35;;;3.05;;
65755;SDS011;52489;47.502;18.940;2022-09-12T06:53:23;3.67;;;2.12;;
65755;SDS011;52489;47.502;18.940;2022-09-12T06:54:28;4.97;;;2.00;;
65755;SDS011;52489;47.502;18.940;2022-09-12T06:55:31;4.25;;;2.30;;
65755;SDS011;52489;47.502;18.940;2022-09-12T06:56:35;3.78;;;2.28;;
65755;SDS011;52489;47.502;18.940;2022-09-12T06:57:39;3.85;;;1.87;;
65755;SDS011;52489;47.502;18.940;2022-09-12T06:58:47;4.62;;;2.00;;
65755;SDS011;52489;47.502;18.940;2022-09-12T06:59:51;4.70;;;2.40;;
65755;SDS011;52489;47.502;18.940;2022-09-12T07:01:55;4.35;;;2.65;;
65755;SDS011;52489;47.502;18.940;2022-09-12T07:02:31;3.17;;;2.10;;
65755;SDS011;52489;47.502;18.940;2022-09-12T07:03:34;3.70;;;2.03;;
65755;SDS011;52489;47.502;18.940;2022-09-12T07:04:38;4.22;;;2.12;;
65755;SDS011;52489;47.502;18.940;2022-09-12T07:05:41;4.15;;;2.22;;
65755;SDS011;52489;47.502;18.940;2022-09-12T07:06:45;4.18;;;2.42;;
65755;SDS011;52489;47.502;18.940;2022-09-12T07:07:49;2.60;;;2.00;;
65755;SDS011;52489;47.502;18.940;2022-09-12T07:08:52;4.25;;;2.40;;
65755;SDS011;52489;47.502;18.940;2022-09-12T07:09:55;3.05;;;2.00;;